Helston, United Kingdom
Current Conditions -  °F | °C
As of 8:50 AM on Thursday 27 Nov 2014 (Local Time) from EGDR Reporting Station
Scattered Clouds Scattered Clouds  
Wind Chill: 42°   Ceiling: Unl
Heat Index: 46°   Visibility: 6mi
Dew Point: 37°   Wind: 9mph
Humidity: 71%   Direction: 160°SSE
Pressure: 29.53"   Gusts: NA
Location:  50.08°N, 5.2°W
Report Text: EGDR 270850Z 16008KT 9999 FEW025 SCT035 08/03 Q1000 BLU TEMPO SCT020 WHT
Loading
Personal Weather Stations






























Interactive Weather Map New forecast layout! Learn more

10-Day Weather Forecast

Advertisements
Track Severe Weather on mobile